Time;durP1;ratioP1;P1;durP2;ratioP2;P2;SDS_P1;SDS_P2;PMS_P1;PMS_P2;Temp;Humidity;BMP_temperature;BMP_pressure;BME280_temperature;BME280_humidity;BME280_pressure;Samples;Min_cycle;Max_cycle;Signal;HPM_P1;HPM_P2
2021/12/26 00:00:18;;;;;;;11.50;7.88;;;;;;;0.35;70.06;100602.13;5025396;28;20101;-51
2021/12/26 00:02:44;;;;;;;10.85;8.18;;;;;;;0.34;69.98;100600.38;5024627;28;20023;-51
2021/12/26 00:05:15;;;;;;;9.13;7.10;;;;;;;0.35;70.31;100608.19;5019820;28;20048;-51
2021/12/26 00:07:41;;;;;;;9.43;7.35;;;;;;;0.34;70.44;100610.75;5019329;28;20026;-50
2021/12/26 00:10:09;;;;;;;11.43;7.50;;;;;;;0.33;69.83;100609.00;5006023;28;20594;-51
2021/12/26 00:12:34;;;;;;;11.10;8.68;;;;;;;0.33;69.97;100614.19;5020966;28;20025;-51
2021/12/26 00:15:00;;;;;;;9.02;7.97;;;;;;;0.31;70.15;100603.75;5020140;28;20049;-51
2021/12/26 00:17:28;;;;;;;9.40;7.75;;;;;;;0.30;69.81;100604.56;5019432;28;20026;-51
2021/12/26 00:19:56;;;;;;;10.25;8.10;;;;;;;0.29;69.83;100605.41;5021973;28;20036;-51
2021/12/26 00:22:25;;;;;;;14.35;8.50;;;;;;;0.27;69.92;100599.31;5023858;28;20039;-50
2021/12/26 00:24:50;;;;;;;11.15;8.38;;;;;;;0.27;70.29;100604.50;5018336;28;20022;-51
2021/12/26 00:27:19;;;;;;;11.85;8.60;;;;;;;0.27;70.28;100601.00;5027455;28;20072;-51
2021/12/26 00:29:46;;;;;;;10.20;7.82;;;;;;;0.25;69.91;100601.84;5019490;28;20030;-51
2021/12/26 00:32:11;;;;;;;11.60;8.75;;;;;;;0.24;70.25;100599.19;5019538;28;20354;-50
2021/12/26 00:34:40;;;;;;;11.52;8.50;;;;;;;0.24;70.20;100601.78;5025851;28;20041;-50
2021/12/26 00:37:05;;;;;;;10.30;8.20;;;;;;;0.23;69.80;100590.53;5021154;28;20499;-50
2021/12/26 00:39:49;;;;;;;11.52;8.57;;;;;;;0.23;70.03;100594.81;5018872;28;20109;-51
2021/12/26 00:42:14;;;;;;;11.27;7.85;;;;;;;0.21;69.77;100586.13;5023164;28;20038;-51
2021/12/26 00:44:46;;;;;;;13.77;8.93;;;;;;;0.20;70.02;100589.56;5035174;28;20053;-51
2021/12/26 00:47:12;;;;;;;9.63;8.00;;;;;;;0.21;69.75;100586.13;5019196;28;20025;-50
2021/12/26 00:49:43;;;;;;;9.80;8.40;;;;;;;0.16;69.84;100587.69;5025876;28;20039;-50
2021/12/26 00:52:09;;;;;;;12.55;8.20;;;;;;;0.16;70.02;100592.88;5020886;28;20069;-51
2021/12/26 00:54:34;;;;;;;11.20;8.35;;;;;;;0.15;70.15;100591.09;5035521;28;20037;-51
2021/12/26 00:57:00;;;;;;;9.50;7.63;;;;;;;0.15;70.09;100594.59;5044260;28;20056;-50
2021/12/26 00:59:26;;;;;;;9.70;8.10;;;;;;;0.11;69.82;100578.03;5022611;28;20037;-49
2021/12/26 01:01:53;;;;;;;12.25;8.05;;;;;;;0.14;69.42;100586.75;5039742;28;20037;-51
2021/12/26 01:04:23;;;;;;;8.68;7.28;;;;;;;0.14;69.77;100578.97;5044476;28;20020;-51
2021/12/26 01:06:49;;;;;;;11.15;8.40;;;;;;;0.11;69.98;100580.63;5040216;28;20025;-50
2021/12/26 01:09:21;;;;;;;10.73;8.52;;;;;;;0.11;69.95;100583.22;5038959;28;20467;-50
2021/12/26 01:11:51;;;;;;;9.35;7.55;;;;;;;0.10;70.18;100581.47;5030730;28;20026;-50
2021/12/26 01:14:25;;;;;;;8.10;7.28;;;;;;;0.09;69.42;100584.00;5045622;28;20199;-48
2021/12/26 01:17:01;;;;;;;11.05;8.88;;;;;;;0.09;69.47;100578.81;5040066;28;20475;-50
2021/12/26 01:19:32;;;;;;;9.73;7.80;;;;;;;0.07;69.83;100583.94;5032615;28;20057;-51
2021/12/26 01:21:58;;;;;;;;;;;;;;;0.07;69.93;100589.13;5039092;28;20060;-50
2021/12/26 01:24:24;;;;;;;10.80;7.47;;;;;;;0.04;69.61;100585.56;5040221;28;19951;-51
2021/12/26 01:26:49;;;;;;;12.10;8.50;;;;;;;0.03;69.86;100592.47;5040526;28;20034;-50
2021/12/26 01:29:15;;;;;;;10.60;7.10;;;;;;;0.02;70.07;100582.94;5038243;28;20537;-50
2021/12/26 01:31:40;;;;;;;10.52;8.73;;;;;;;0.02;69.86;100592.41;5042681;28;20021;-50
2021/12/26 01:34:06;;;;;;;10.13;8.02;;;;;;;0.01;69.48;100591.56;5038162;28;20104;-51
2021/12/26 01:36:33;;;;;;;11.05;7.93;;;;;;;0.01;69.98;100591.56;5043197;28;20060;-50
2021/12/26 01:39:00;;;;;;;10.55;7.80;;;;;;;-0.02;69.92;100586.25;5023974;28;20383;-51
2021/12/26 01:41:27;;;;;;;9.85;7.60;;;;;;;-0.01;69.67;100596.69;5035540;28;20116;-50
2021/12/26 01:43:57;;;;;;;12.07;7.57;;;;;;;-0.02;69.50;100597.53;5030414;28;20059;-51
2021/12/26 01:46:23;;;;;;;8.50;7.28;;;;;;;-0.02;69.73;100587.16;5034724;28;20075;-51
2021/12/26 01:49:29;;;;;;;9.82;7.72;;;;;;;-0.02;69.99;100591.44;5038237;28;20441;-51
2021/12/26 01:51:58;;;;;;;9.25;7.85;;;;;;;-0.05;69.80;100580.97;5026313;28;20406;-51
2021/12/26 01:54:33;;;;;;;9.65;7.65;;;;;;;-0.06;69.92;100587.00;5044333;28;20017;-50
2021/12/26 01:57:00;;;;;;;11.02;7.88;;;;;;;-0.06;69.36;100590.47;5029920;28;20030;-50
2021/12/26 01:59:26;;;;;;;14.02;8.65;;;;;;;-0.08;69.74;100583.44;5039230;28;20021;-51
2021/12/26 02:01:54;;;;;;;9.43;8.32;;;;;;;-0.08;69.57;100593.81;5030120;28;20052;-50
2021/12/26 02:04:20;;;;;;;10.77;8.20;;;;;;;-0.08;69.81;100592.13;5010914;28;20030;-51
2021/12/26 02:06:45;;;;;;;10.88;7.70;;;;;;;-0.11;69.57;100586.81;5030231;28;20364;-51
2021/12/26 02:09:12;;;;;;;9.00;7.50;;;;;;;-0.11;69.73;100583.38;5033358;28;20552;-51
2021/12/26 02:11:39;;;;;;;9.48;7.93;;;;;;;-0.11;69.61;100573.88;5036639;28;20017;-50
2021/12/26 02:14:05;;;;;;;9.40;7.68;;;;;;;-0.11;69.63;100580.78;5039128;28;20391;-50
2021/12/26 02:16:30;;;;;;;9.90;7.97;;;;;;;-0.14;69.45;100572.06;5037447;28;20025;-50
2021/12/26 02:18:55;;;;;;;11.63;8.05;;;;;;;-0.14;69.86;100574.66;5033713;28;20033;-50
2021/12/26 02:24:24;;;;;;;9.55;8.10;;;;;;;-0.16;69.40;100591.00;5037232;28;20490;-50
2021/12/26 02:29:44;;;;;;;11.27;8.43;;;;;;;-0.17;69.27;100586.66;5035314;28;20513;-50
2021/12/26 02:32:10;;;;;;;10.70;8.82;;;;;;;-0.20;69.38;100582.22;5025609;28;20469;-50
2021/12/26 02:34:35;;;;;;;10.75;8.00;;;;;;;-0.19;69.65;100594.38;5041083;28;20253;-51
2021/12/26 02:37:01;;;;;;;12.05;8.18;;;;;;;-0.23;69.20;100587.31;5034459;28;20028;-51
2021/12/26 02:39:26;;;;;;;13.63;8.65;;;;;;;-0.22;69.47;100583.00;5034901;28;20104;-50
2021/12/26 02:41:52;;;;;;;10.40;8.13;;;;;;;-0.23;69.50;100581.25;5031720;28;20387;-50
2021/12/26 02:44:17;;;;;;;10.10;7.85;;;;;;;-0.23;69.90;100579.53;5044873;28;20411;-51
2021/12/26 02:46:43;;;;;;;11.00;7.72;;;;;;;-0.25;69.38;100573.41;5033847;28;20060;-51
2021/12/26 02:49:08;;;;;;;11.32;8.25;;;;;;;-0.28;69.57;100574.19;5038306;28;20097;-50
2021/12/26 02:51:33;;;;;;;12.38;7.57;;;;;;;-0.28;69.84;100578.47;5042808;28;20120;-50
2021/12/26 02:53:59;;;;;;;9.55;7.68;;;;;;;-0.27;69.40;100585.41;5042239;28;20386;-51
2021/12/26 02:56:24;;;;;;;13.10;8.57;;;;;;;-0.28;69.48;100591.44;5035512;28;20490;-50
2021/12/26 02:58:49;;;;;;;11.73;8.25;;;;;;;-0.30;69.33;100591.38;5029738;28;20029;-50
2021/12/26 03:01:21;;;;;;;9.25;7.20;;;;;;;-0.29;69.35;100592.28;5041184;28;20048;-51
2021/12/26 03:03:46;;;;;;;10.63;8.52;;;;;;;-0.30;69.02;100590.53;5035850;28;20029;-50
2021/12/26 03:06:20;;;;;;;12.35;8.60;;;;;;;-0.32;69.24;100592.16;5042571;28;20032;-51
2021/12/26 03:08:47;;;;;;;11.27;7.75;;;;;;;-0.34;69.06;100589.53;5044420;28;20048;-50
2021/12/26 03:11:12;;;;;;;9.50;7.43;;;;;;;-0.34;69.06;100597.31;5034668;28;20044;-50
2021/12/26 03:13:37;;;;;;;12.75;8.48;;;;;;;-0.35;69.40;100598.13;5036550;28;20026;-50
2021/12/26 03:16:03;;;;;;;8.82;7.55;;;;;;;-0.35;69.48;100592.06;5040585;28;20502;-51
2021/12/26 03:18:28;;;;;;;9.65;7.20;;;;;;;-0.34;69.22;100591.25;5038209;28;20446;-50
2021/12/26 03:20:54;;;;;;;8.68;6.57;;;;;;;-0.35;69.54;100594.66;5040061;28;20593;-50
2021/12/26 03:23:23;;;;;;;11.77;7.20;;;;;;;-0.36;69.24;100598.97;5031499;28;20450;-51
2021/12/26 03:25:48;;;;;;;10.32;8.00;;;;;;;-0.37;69.66;100583.38;5029438;28;20033;-50
2021/12/26 03:28:14;;;;;;;13.25;8.43;;;;;;;-0.38;68.96;100590.25;5043061;28;20028;-50
2021/12/26 03:30:43;;;;;;;10.18;7.60;;;;;;;-0.39;69.42;100591.94;5043732;28;20064;-51
2021/12/26 03:33:10;;;;;;;10.60;7.97;;;;;;;-0.40;69.01;100590.19;5037068;28;20550;-50
2021/12/26 03:35:36;;;;;;;7.55;6.78;;;;;;;-0.41;69.60;100583.25;5020598;28;20044;-51
2021/12/26 03:38:03;;;;;;;8.93;7.18;;;;;;;-0.44;68.84;100587.44;5038081;28;20375;-50
2021/12/26 03:40:28;;;;;;;8.50;6.82;;;;;;;-0.45;69.01;100573.63;5035629;28;20537;-50
2021/12/26 03:42:54;;;;;;;11.30;7.78;;;;;;;-0.45;68.98;100571.03;5036164;28;20037;-51
2021/12/26 03:45:20;;;;;;;10.25;7.57;;;;;;;-0.44;69.30;100567.59;5031207;28;20037;-50
2021/12/26 03:47:49;;;;;;;10.80;7.70;;;;;;;-0.47;69.19;100570.06;5034391;28;20021;-51
2021/12/26 03:50:17;;;;;;;9.27;7.85;;;;;;;-0.46;69.01;100577.03;5035823;28;20496;-50
2021/12/26 03:52:42;;;;;;;11.98;7.53;;;;;;;-0.48;68.73;100576.09;5015077;28;20022;-51
2021/12/26 03:55:08;;;;;;;9.60;7.40;;;;;;;-0.53;68.97;100562.13;5033386;28;20029;-51
2021/12/26 03:57:33;;;;;;;11.05;7.70;;;;;;;-0.52;69.48;100561.28;5033130;28;20053;-51
2021/12/26 03:59:58;;;;;;;11.32;8.13;;;;;;;-0.51;69.11;100563.03;5027235;28;20037;-51
2021/12/26 04:02:24;;;;;;;10.95;8.10;;;;;;;-0.50;68.95;100566.50;5035405;28;20071;-50
2021/12/26 04:04:49;;;;;;;9.77;8.07;;;;;;;-0.52;68.86;100563.88;5024931;28;20028;-50
2021/12/26 04:07:14;;;;;;;10.40;7.93;;;;;;;-0.54;69.16;100563.81;5026983;28;20446;-51
2021/12/26 04:09:40;;;;;;;9.02;7.95;;;;;;;-0.56;69.40;100564.59;5038408;28;20450;-50
2021/12/26 04:12:07;;;;;;;11.38;8.20;;;;;;;-0.55;68.87;100559.47;5035932;28;20028;-51
2021/12/26 04:14:32;;;;;;;8.95;7.70;;;;;;;-0.55;69.44;100554.28;5021381;28;20037;-51
2021/12/26 04:16:58;;;;;;;10.15;8.30;;;;;;;-0.58;69.36;100564.53;5031320;28;20117;-50
2021/12/26 04:19:23;;;;;;;9.40;7.72;;;;;;;-0.56;68.87;100564.59;5039050;28;20039;-50
2021/12/26 04:21:49;;;;;;;10.57;7.85;;;;;;;-0.59;68.77;100560.19;5036158;28;20116;-50
2021/12/26 04:24:14;;;;;;;10.75;7.72;;;;;;;-0.62;68.90;100556.59;5038117;28;20025;-51
2021/12/26 04:26:39;;;;;;;11.45;7.82;;;;;;;-0.60;68.56;100558.41;5019406;28;20025;-50
2021/12/26 04:29:06;;;;;;;11.02;7.82;;;;;;;-0.60;68.68;100554.94;5042564;28;20040;-50
2021/12/26 04:31:32;;;;;;;9.18;7.95;;;;;;;-0.61;68.71;100564.41;5035230;28;20071;-50
2021/12/26 04:33:57;;;;;;;10.50;8.05;;;;;;;-0.62;69.07;100565.25;5032077;28;20057;-51
2021/12/26 04:36:22;;;;;;;8.23;6.65;;;;;;;-0.66;68.95;100563.38;5022172;28;20377;-50
2021/12/26 04:38:49;;;;;;;10.75;8.13;;;;;;;-0.66;68.95;100568.56;5024503;28;20068;-50
2021/12/26 04:41:14;;;;;;;10.10;8.00;;;;;;;-0.66;69.07;100576.34;5037029;28;20032;-51
2021/12/26 04:43:40;;;;;;;9.32;6.90;;;;;;;-0.66;68.78;100573.75;5043627;28;20032;-51
2021/12/26 04:46:07;;;;;;;10.48;8.48;;;;;;;-0.66;68.92;100572.03;5046087;28;20027;-49
2021/12/26 04:48:35;;;;;;;9.10;7.05;;;;;;;-0.70;68.60;100577.94;5036293;28;20048;-50
2021/12/26 04:51:00;;;;;;;9.85;7.88;;;;;;;-0.70;69.20;100575.34;5043502;28;20026;-51
2021/12/26 04:53:26;;;;;;;10.23;7.88;;;;;;;-0.71;69.22;100565.81;5045439;28;20048;-49
2021/12/26 04:55:51;;;;;;;9.85;7.30;;;;;;;-0.71;68.85;100583.94;5041539;28;20080;-50
2021/12/26 04:58:16;;;;;;;9.40;8.07;;;;;;;-0.74;68.86;100578.66;5043844;28;20248;-51
2021/12/26 05:00:42;;;;;;;10.30;7.50;;;;;;;-0.73;68.67;100575.22;5040227;28;20032;-50
2021/12/26 05:03:08;;;;;;;9.52;8.23;;;;;;;-0.73;68.75;100577.81;5030010;28;20029;-51
2021/12/26 05:05:35;;;;;;;10.77;7.57;;;;;;;-0.73;68.43;100574.38;5042289;28;20552;-51
2021/12/26 05:08:00;;;;;;;10.23;7.75;;;;;;;-0.73;68.98;100564.00;5041089;28;20091;-51
2021/12/26 05:10:28;;;;;;;10.35;8.35;;;;;;;-0.76;68.86;100569.06;5038402;28;20025;-51
2021/12/26 05:12:55;;;;;;;10.45;7.60;;;;;;;-0.77;68.43;100568.16;5039377;28;20128;-51
2021/12/26 05:15:21;;;;;;;11.18;8.60;;;;;;;-0.77;68.76;100563.00;5021137;28;20032;-51
2021/12/26 05:17:48;;;;;;;11.38;8.57;;;;;;;-0.78;69.11;100556.06;5044593;28;20103;-51
2021/12/26 05:20:13;;;;;;;10.98;8.38;;;;;;;-0.80;68.36;100560.31;5038575;28;20029;-50
2021/12/26 05:22:39;;;;;;;10.43;8.60;;;;;;;-0.81;68.65;100562.00;5036337;28;20022;-51
2021/12/26 05:25:07;;;;;;;9.98;7.70;;;;;;;-0.81;68.66;100571.47;5042184;28;20029;-50
2021/12/26 05:27:32;;;;;;;11.65;7.88;;;;;;;-0.84;68.76;100563.63;5020932;28;20053;-50
2021/12/26 05:29:58;;;;;;;9.77;7.85;;;;;;;-0.83;68.60;100560.22;5040954;28;20072;-51
2021/12/26 05:32:23;;;;;;;10.38;8.40;;;;;;;-0.85;68.95;100564.44;5037377;28;20079;-51
2021/12/26 05:34:49;;;;;;;9.52;7.75;;;;;;;-0.85;68.97;100564.44;5036864;28;20021;-49
2021/12/26 05:37:14;;;;;;;10.75;7.68;;;;;;;-0.85;68.57;100567.03;5036768;28;20543;-49
2021/12/26 05:39:41;;;;;;;12.43;8.38;;;;;;;-0.88;68.25;100559.13;5036669;28;20120;-49
2021/12/26 05:42:06;;;;;;;9.90;8.27;;;;;;;-0.88;68.71;100556.56;5044094;28;20018;-49
2021/12/26 05:44:31;;;;;;;10.75;8.93;;;;;;;-0.87;68.52;100555.75;5042940;28;20514;-49
2021/12/26 05:46:57;;;;;;;10.95;8.52;;;;;;;-0.91;68.71;100560.81;5034795;28;20560;-48
2021/12/26 05:49:22;;;;;;;13.50;9.23;;;;;;;-0.93;68.53;100565.03;5045337;28;20083;-49
2021/12/26 05:51:47;;;;;;;12.48;8.75;;;;;;;-0.91;68.88;100559.91;5037566;28;20471;-49
2021/12/26 05:54:13;;;;;;;12.13;8.98;;;;;;;-0.94;68.45;100559.81;5029543;28;20030;-49
2021/12/26 05:56:38;;;;;;;11.90;9.18;;;;;;;-0.94;68.83;100555.50;5028640;28;20104;-49
2021/12/26 05:59:04;;;;;;;12.00;7.75;;;;;;;-0.95;68.88;100551.16;5036424;28;20032;-48
2021/12/26 06:01:29;;;;;;;11.90;8.20;;;;;;;-0.96;68.76;100551.13;5027755;28;20430;-48
2021/12/26 06:03:54;;;;;;;12.48;9.15;;;;;;;-0.97;68.26;100560.56;5038422;28;20033;-49
2021/12/26 06:06:20;;;;;;;9.85;7.97;;;;;;;-0.97;68.26;100560.56;5028981;28;20084;-49
2021/12/26 06:08:45;;;;;;;14.00;8.63;;;;;;;-1.01;68.30;100558.69;5031981;28;20025;-49
2021/12/26 06:11:10;;;;;;;11.07;8.85;;;;;;;-0.98;68.17;100557.94;5033820;28;20036;-49
2021/12/26 06:13:37;;;;;;;12.90;9.70;;;;;;;-1.01;68.56;100550.94;5040731;28;20029;-49
2021/12/26 06:16:02;;;;;;;12.25;8.80;;;;;;;-0.99;68.70;100548.41;5030266;28;20543;-48
2021/12/26 06:18:28;;;;;;;11.10;9.18;;;;;;;-1.01;68.22;100548.34;5009806;28;20146;-49
2021/12/26 06:20:53;;;;;;;12.25;9.73;;;;;;;-1.01;68.38;100542.31;5033501;28;20029;-48
2021/12/26 06:23:18;;;;;;;11.95;8.75;;;;;;;-1.05;68.55;100541.28;5016185;28;20025;-48
2021/12/26 06:25:43;;;;;;;13.40;9.25;;;;;;;-1.04;68.64;100543.06;5025624;28;20026;-49
2021/12/26 06:28:09;;;;;;;13.32;9.20;;;;;;;-1.06;68.43;100544.72;5033475;28;20049;-49
2021/12/26 06:30:34;;;;;;;14.38;10.10;;;;;;;-1.05;68.62;100551.66;5038097;28;20025;-49
2021/12/26 06:33:00;;;;;;;11.90;9.52;;;;;;;-1.06;68.27;100547.31;5034983;28;20096;-49
2021/12/26 06:35:25;;;;;;;13.52;9.90;;;;;;;-1.08;68.77;100546.34;5030990;28;20037;-49
2021/12/26 06:37:50;;;;;;;13.07;9.95;;;;;;;-1.08;68.55;100559.31;5037574;28;20397;-48
2021/12/26 06:40:16;;;;;;;16.92;9.82;;;;;;;-1.10;68.07;100564.41;5029203;28;20025;-49
2021/12/26 06:42:43;;;;;;;14.23;10.45;;;;;;;-1.09;68.78;100570.50;5027886;28;20021;-49
2021/12/26 06:45:11;;;;;;;14.32;9.43;;;;;;;-1.10;68.30;100572.19;5030213;28;20027;-49
2021/12/26 06:47:39;;;;;;;15.70;10.27;;;;;;;-1.11;68.42;100577.31;5031328;28;20032;-49
2021/12/26 06:50:05;;;;;;;16.13;10.52;;;;;;;-1.12;68.40;100572.97;5035063;28;20049;-49
2021/12/26 06:52:30;;;;;;;16.65;11.20;;;;;;;-1.13;68.55;100566.03;5035088;28;20052;-48
2021/12/26 06:54:55;;;;;;;15.50;10.93;;;;;;;-1.13;68.33;100568.63;5029791;28;20060;-49
2021/12/26 06:57:21;;;;;;;16.75;10.77;;;;;;;-1.16;68.18;100575.44;5041926;28;20107;-48
2021/12/26 06:59:46;;;;;;;15.85;11.35;;;;;;;-1.17;68.35;100572.78;5033844;28;20475;-49
2021/12/26 07:02:11;;;;;;;17.00;10.45;;;;;;;-1.19;68.23;100577.03;5027141;28;20025;-49
2021/12/26 07:04:37;;;;;;;15.80;10.57;;;;;;;-1.19;68.61;100575.34;5031832;28;20032;-49
2021/12/26 07:07:02;;;;;;;16.65;11.65;;;;;;;-1.20;68.33;100576.13;5030548;28;20030;-49
2021/12/26 07:09:28;;;;;;;16.73;11.77;;;;;;;-1.20;68.05;100577.88;5034624;28;20032;-49
2021/12/26 07:11:53;;;;;;;18.48;12.40;;;;;;;-1.20;68.26;100581.31;5031370;28;20022;-49
2021/12/26 07:14:18;;;;;;;15.45;11.48;;;;;;;-1.22;68.34;100577.81;5030050;28;20032;-48
2021/12/26 07:16:43;;;;;;;17.77;12.23;;;;;;;-1.25;68.67;100580.28;5032983;28;20036;-49
2021/12/26 07:19:09;;;;;;;19.33;12.25;;;;;;;-1.26;68.01;100565.59;5037844;28;20065;-49
2021/12/26 07:21:34;;;;;;;19.25;13.57;;;;;;;-1.27;68.13;100568.97;5030503;28;20029;-49
2021/12/26 07:23:59;;;;;;;18.20;12.45;;;;;;;-1.25;68.50;100569.91;5030211;28;20037;-49
2021/12/26 07:26:26;;;;;;;18.65;13.45;;;;;;;-1.30;68.34;100572.31;5028770;28;20049;-49
2021/12/26 07:28:51;;;;;;;22.60;15.35;;;;;;;-1.27;68.27;100576.72;5029214;28;20200;-49
2021/12/26 07:31:17;;;;;;;23.38;15.45;;;;;;;-1.28;68.12;100580.16;5026256;28;20127;-49
2021/12/26 07:33:42;;;;;;;23.73;14.93;;;;;;;-1.31;68.62;100577.44;5039435;28;20021;-49
2021/12/26 07:36:08;;;;;;;26.90;16.23;;;;;;;-1.32;68.41;100581.75;5030051;28;20077;-49
2021/12/26 07:38:34;;;;;;;24.33;16.90;;;;;;;-1.32;68.46;100581.75;5034049;28;20436;-49
2021/12/26 07:40:59;;;;;;;25.13;16.70;;;;;;;-1.32;68.59;100583.44;5026950;28;20024;-49
2021/12/26 07:43:24;;;;;;;30.30;18.65;;;;;;;-1.34;68.47;100587.66;5033409;28;20037;-49
2021/12/26 07:45:49;;;;;;;30.52;18.25;;;;;;;-1.34;68.65;100591.16;5031210;28;20088;-48
2021/12/26 07:48:15;;;;;;;28.02;18.50;;;;;;;-1.34;67.88;100590.25;5027167;28;20392;-49
2021/12/26 07:50:40;;;;;;;30.10;19.05;;;;;;;-1.35;67.92;100583.31;5038897;28;20056;-49
2021/12/26 07:53:10;;;;;;;27.83;19.50;;;;;;;-1.39;68.19;100590.09;5030046;28;20096;-49
2021/12/26 07:55:35;;;;;;;33.95;22.15;;;;;;;-1.38;68.01;100588.38;5033204;28;20017;-49
2021/12/26 07:58:01;;;;;;;32.92;21.50;;;;;;;-1.40;68.44;100585.72;5029396;28;20091;-49
2021/12/26 08:00:26;;;;;;;31.35;19.17;;;;;;;-1.42;68.02;100583.13;5033079;28;20029;-49
2021/12/26 08:02:54;;;;;;;33.28;20.25;;;;;;;-1.40;68.04;100590.03;5034589;28;20061;-49
2021/12/26 08:05:20;;;;;;;30.27;18.55;;;;;;;-1.39;68.34;100586.63;5014042;28;20065;-48
2021/12/26 08:07:45;;;;;;;25.88;17.20;;;;;;;-1.42;67.85;100589.97;5033194;28;20126;-49
2021/12/26 08:10:10;;;;;;;29.00;19.83;;;;;;;-1.42;67.92;100584.81;5028758;28;20037;-48
2021/12/26 08:12:36;;;;;;;31.92;19.67;;;;;;;-1.43;68.54;100586.50;5024349;28;20464;-49
2021/12/26 08:15:02;;;;;;;30.42;19.58;;;;;;;-1.47;68.25;100589.78;5026674;28;20109;-48
2021/12/26 08:17:29;;;;;;;28.40;17.90;;;;;;;-1.45;68.14;100588.16;5025085;28;20039;-49
2021/12/26 08:19:54;;;;;;;28.77;18.95;;;;;;;-1.48;68.52;100581.97;5029919;28;20159;-49
2021/12/26 08:22:20;;;;;;;29.52;18.27;;;;;;;-1.46;67.97;100581.19;5023049;28;20105;-49
2021/12/26 08:24:45;;;;;;;25.10;16.65;;;;;;;-1.47;68.39;100584.63;5028367;28;20025;-48
2021/12/26 08:27:11;;;;;;;25.05;16.40;;;;;;;-1.48;68.67;100588.03;5029514;28;20447;-48
2021/12/26 08:29:36;;;;;;;23.98;16.85;;;;;;;-1.51;67.84;100580.16;5031480;28;20025;-50
2021/12/26 08:32:02;;;;;;;25.15;17.00;;;;;;;-1.49;68.40;100586.28;5014600;28;20578;-49
2021/12/26 08:34:27;;;;;;;23.75;16.98;;;;;;;-1.52;68.07;100575.81;5007151;28;20505;-49
2021/12/26 08:37:00;;;;;;;22.13;15.20;;;;;;;-1.53;68.12;100574.06;5010576;28;20033;-49
2021/12/26 08:39:31;;;;;;;24.50;15.82;;;;;;;-1.51;68.37;100566.31;5027408;28;20033;-49
2021/12/26 08:41:56;;;;;;;22.25;14.98;;;;;;;-1.53;68.16;100576.66;5033121;28;20033;-51
2021/12/26 08:44:22;;;;;;;23.17;15.55;;;;;;;-1.53;68.40;100570.56;5026815;28;20415;-51
2021/12/26 08:46:48;;;;;;;22.33;15.23;;;;;;;-1.55;68.08;100571.41;5021617;28;20496;-51
2021/12/26 08:49:15;;;;;;;25.05;16.30;;;;;;;-1.56;68.04;100573.94;5022715;28;20025;-51
2021/12/26 08:51:40;;;;;;;22.17;14.75;;;;;;;-1.56;67.88;100569.63;5021013;28;20590;-49
2021/12/26 08:54:06;;;;;;;21.90;14.85;;;;;;;-1.57;68.08;100577.34;5029410;28;20116;-49
2021/12/26 08:56:31;;;;;;;20.80;14.90;;;;;;;-1.59;68.53;100573.81;5031032;28;20036;-48
2021/12/26 08:58:59;;;;;;;23.00;15.43;;;;;;;-1.58;67.98;100583.31;5035767;28;20487;-49
2021/12/26 09:01:25;;;;;;;20.45;15.05;;;;;;;-1.61;68.13;100575.44;5027114;28;20036;-49
2021/12/26 09:03:50;;;;;;;20.88;16.17;;;;;;;-1.61;67.95;100573.75;5027074;28;20033;-49
2021/12/26 09:06:15;;;;;;;23.60;15.70;;;;;;;-1.61;67.97;100575.44;5030630;28;20048;-49
2021/12/26 09:08:41;;;;;;;24.08;15.63;;;;;;;-1.64;68.43;100572.75;5029208;28;20021;-49
2021/12/26 09:11:06;;;;;;;21.65;16.20;;;;;;;-1.64;68.68;100578.78;5033185;28;20072;-49
2021/12/26 09:13:33;;;;;;;21.90;16.05;;;;;;;-1.66;68.41;100582.16;5028065;28;20010;-49
2021/12/26 09:15:58;;;;;;;20.42;15.25;;;;;;;-1.65;68.69;100591.66;5031432;28;20036;-49
2021/12/26 09:18:24;;;;;;;22.98;15.60;;;;;;;-1.71;68.43;100588.03;5035418;28;20100;-48
2021/12/26 09:20:49;;;;;;;21.48;15.30;;;;;;;-1.70;68.73;100592.38;5028596;28;20506;-48
2021/12/26 09:23:14;;;;;;;18.70;13.68;;;;;;;-1.72;68.49;100588.84;5031548;28;20072;-51
2021/12/26 09:25:39;;;;;;;21.90;14.70;;;;;;;-1.92;65.30;100594.91;5024775;28;20033;-50
2021/12/26 09:28:05;;;;;;;27.27;17.52;;;;;;;-2.14;63.32;100596.63;5029069;28;20056;-52
2021/12/26 09:30:30;;;;;;;29.65;20.95;;;;;;;-2.14;65.65;100599.22;5029074;28;20025;-51
2021/12/26 09:32:58;;;;;;;30.70;19.70;;;;;;;-2.02;65.80;100594.53;5040735;28;20033;-51
2021/12/26 09:35:24;;;;;;;34.90;21.35;;;;;;;-1.97;66.27;100594.75;5042214;28;20056;-51
2021/12/26 09:37:49;;;;;;;31.02;21.40;;;;;;;-1.95;66.74;100593.97;5032650;28;20037;-51
2021/12/26 09:40:15;;;;;;;32.63;22.75;;;;;;;-1.92;66.49;100605.25;5035959;28;20025;-51
2021/12/26 09:42:43;;;;;;;28.48;19.45;;;;;;;-1.93;67.13;100596.63;5034883;28;20017;-52
2021/12/26 09:45:09;;;;;;;33.13;21.55;;;;;;;-1.91;67.03;100596.69;5033077;28;20499;-51
2021/12/26 09:47:35;;;;;;;31.77;21.70;;;;;;;-1.91;67.47;100591.53;5036916;28;20033;-51
2021/12/26 09:50:02;;;;;;;27.73;18.85;;;;;;;-1.91;67.41;100596.69;5040645;28;20013;-51
2021/12/26 09:52:28;;;;;;;32.25;20.05;;;;;;;-1.91;67.66;100587.22;5035829;28;20029;-51
2021/12/26 09:54:53;;;;;;;27.20;18.70;;;;;;;-1.91;67.55;100589.81;5038142;28;20048;-51
2021/12/26 09:57:18;;;;;;;27.48;19.88;;;;;;;-1.91;67.08;100582.03;5014464;28;20048;-51
2021/12/26 09:59:47;;;;;;;29.08;19.77;;;;;;;-1.92;67.81;100584.56;5034077;28;20053;-52
2021/12/26 10:02:14;;;;;;;28.42;17.38;;;;;;;-1.92;67.39;100579.41;5029072;28;20026;-52
2021/12/26 10:04:41;;;;;;;27.85;18.27;;;;;;;-1.94;67.65;100575.06;5032487;28;20100;-52
2021/12/26 10:07:09;;;;;;;25.05;17.80;;;;;;;-1.94;67.58;100572.47;5021884;28;20021;-51
2021/12/26 10:09:46;;;;;;;28.08;18.25;;;;;;;-1.94;67.75;100572.47;5034422;28;20036;-51
2021/12/26 10:12:13;;;;;;;25.38;18.30;;;;;;;-1.94;67.87;100567.28;5034637;28;20491;-52
2021/12/26 10:14:49;;;;;;;26.35;17.60;;;;;;;-1.95;68.07;100568.13;5014119;28;20063;-51
2021/12/26 10:17:23;;;;;;;25.13;16.45;;;;;;;-1.95;67.78;100555.19;5026710;28;20033;-49
2021/12/26 10:19:50;;;;;;;23.25;17.95;;;;;;;-1.96;67.89;100550.81;5015821;28;20044;-50
2021/12/26 10:22:18;;;;;;;25.23;16.60;;;;;;;-1.95;67.64;100541.38;5028633;28;20033;-49
2021/12/26 10:24:46;;;;;;;22.95;16.60;;;;;;;-1.96;68.04;100542.22;5028971;28;20099;-48
2021/12/26 10:27:13;;;;;;;20.00;15.93;;;;;;;-1.98;68.00;100529.22;5033163;28;20511;-47
2021/12/26 10:29:45;;;;;;;22.40;14.85;;;;;;;-1.97;68.50;100538.72;5032856;28;20032;-48
2021/12/26 10:32:18;;;;;;;22.60;15.40;;;;;;;-1.97;68.15;100524.94;5029557;28;20537;-48
2021/12/26 10:34:52;;;;;;;26.60;15.70;;;;;;;-1.98;68.11;100518.88;5029888;28;20033;-49
2021/12/26 10:37:30;;;;;;;21.33;14.80;;;;;;;-1.98;68.08;100523.16;5039635;28;20029;-51
2021/12/26 10:40:01;;;;;;;21.10;14.98;;;;;;;-2.00;67.98;100515.34;5038500;28;20484;-51
2021/12/26 10:42:35;;;;;;;24.65;16.48;;;;;;;-1.99;68.60;100509.38;5034346;28;20055;-51
2021/12/26 10:45:05;;;;;;;20.38;14.32;;;;;;;-1.99;68.62;100519.72;5032388;28;20037;-51
2021/12/26 10:47:32;;;;;;;21.38;14.40;;;;;;;-1.99;68.70;100517.13;5027297;28;20022;-51
2021/12/26 10:50:00;;;;;;;20.85;14.57;;;;;;;-2.00;68.86;100515.34;5028704;28;20747;-52
2021/12/26 10:52:31;;;;;;;20.08;15.57;;;;;;;-2.01;68.30;100508.41;5028858;28;20030;-49
2021/12/26 10:55:15;;;;;;;22.20;14.38;;;;;;;-2.01;68.30;100508.41;5014196;28;20413;-49
2021/12/26 10:57:41;;;;;;;19.92;14.00;;;;;;;-2.02;68.84;100511.81;5033426;28;20029;-50
2021/12/26 11:00:09;;;;;;;21.20;16.33;;;;;;;-2.02;68.46;100506.66;5013764;28;20025;-49
2021/12/26 11:02:35;;;;;;;20.23;14.32;;;;;;;-2.02;68.80;100504.06;5034696;28;20021;-49
2021/12/26 11:05:25;;;;;;;20.15;14.00;;;;;;;-2.01;69.07;100504.94;5035011;28;20022;-50
2021/12/26 11:07:58;;;;;;;21.80;14.25;;;;;;;-2.03;69.09;100504.91;5039922;28;20049;-49
2021/12/26 11:10:31;;;;;;;17.15;13.93;;;;;;;-2.02;68.77;100501.50;5028833;28;20036;-49
2021/12/26 11:12:59;;;;;;;18.95;14.77;;;;;;;-2.02;68.62;100501.50;5036187;28;20033;-51
2021/12/26 11:15:28;;;;;;;21.20;13.90;;;;;;;-2.02;68.55;100498.91;5031981;28;20036;-52
2021/12/26 11:17:56;;;;;;;18.65;13.75;;;;;;;-2.01;68.67;100508.41;5038080;28;20021;-49
2021/12/26 11:20:32;;;;;;;17.92;12.65;;;;;;;-2.01;69.03;100502.34;5031231;28;20495;-49